Time;durP1;ratioP1;P1;durP2;ratioP2;P2;SDS_P1;SDS_P2;PMS_P1;PMS_P2;Temp;Humidity;BMP_temperature;BMP_pressure;BME280_temperature;BME280_humidity;BME280_pressure;Samples;Min_cycle;Max_cycle;Signal;HPM_P1;HPM_P2
2022/12/29 00:01:35;;;;;;;1.67;0.90;;;12.00;99.90;;;;;;5092822;28;20184;-75
2022/12/29 00:04:03;;;;;;;1.37;0.80;;;11.90;99.90;;;;;;5074843;28;20562;-75
2022/12/29 00:06:29;;;;;;;2.93;0.93;;;11.90;99.90;;;;;;5074399;28;20525;-75
2022/12/29 00:08:55;;;;;;;2.63;0.87;;;11.90;99.90;;;;;;5092562;28;20224;-75
2022/12/29 00:11:25;;;;;;;1.23;0.80;;;12.00;99.90;;;;;;5091309;28;20166;-76
2022/12/29 00:16:40;;;;;;;1.50;0.73;;;12.00;99.90;;;;;;5092585;28;20207;-75
2022/12/29 00:19:06;;;;;;;0.60;0.60;;;12.10;99.90;;;;;;5092587;28;20199;-75
2022/12/29 00:35:09;;;;;;;3.20;0.77;;;12.10;99.90;;;;;;5092512;28;20226;-75
2022/12/29 00:45:56;;;;;;;1.57;0.47;;;12.40;99.90;;;;;;5092714;28;20693;-75
2022/12/29 00:51:07;;;;;;;6.00;0.60;;;12.40;99.90;;;;;;5092466;28;20229;-75
2022/12/29 00:53:33;;;;;;;4.23;0.77;;;12.30;99.90;;;;;;5092191;28;20171;-76
2022/12/29 00:55:59;;;;;;;2.20;0.67;;;12.40;99.90;;;;;;5092329;28;20543;-75
2022/12/29 00:58:28;;;;;;;2.87;0.63;;;12.40;99.90;;;;;;5092715;28;20175;-75
2022/12/29 01:01:04;;;;;;;2.80;0.80;;;12.40;99.90;;;;;;5095949;28;20690;-75
2022/12/29 01:03:32;;;;;;;1.50;0.50;;;12.40;99.90;;;;;;5095876;28;20272;-75
2022/12/29 01:06:01;;;;;;;1.67;0.50;;;12.40;99.90;;;;;;5096130;28;20601;-75
2022/12/29 01:08:28;;;;;;;2.83;0.60;;;12.30;99.90;;;;;;5095603;28;20250;-76
2022/12/29 01:11:07;;;;;;;2.53;0.90;;;12.30;99.90;;;;;;5095935;28;20169;-75
2022/12/29 01:13:32;;;;;;;4.83;0.70;;;12.50;99.90;;;;;;5095646;28;20173;-75
2022/12/29 01:15:58;;;;;;;2.40;0.73;;;12.40;99.90;;;;;;5095915;28;20616;-75
2022/12/29 01:18:25;;;;;;;3.87;0.60;;;12.40;99.90;;;;;;5077578;28;20662;-76
2022/12/29 01:20:51;;;;;;;1.20;0.60;;;12.30;99.90;;;;;;5095668;28;20594;-75
2022/12/29 01:23:16;;;;;;;1.03;0.50;;;12.10;99.90;;;;;;5095395;28;20164;-75
2022/12/29 01:25:42;;;;;;;2.47;1.07;;;12.00;99.90;;;;;;5095476;28;20174;-75
2022/12/29 01:28:08;;;;;;;2.83;0.63;;;11.90;99.90;;;;;;5095323;28;20254;-75
2022/12/29 01:30:37;;;;;;;5.23;0.90;;;11.90;99.90;;;;;;5095509;28;20217;-75
2022/12/29 01:33:03;;;;;;;1.93;0.70;;;12.00;99.90;;;;;;5095390;28;20249;-75
2022/12/29 01:35:29;;;;;;;3.07;0.83;;;11.70;99.90;;;;;;5095591;28;20171;-75
2022/12/29 01:37:54;;;;;;;1.83;0.80;;;11.70;99.90;;;;;;5095195;28;20164;-75
2022/12/29 01:40:20;;;;;;;3.57;0.97;;;11.60;99.90;;;;;;5093959;28;20611;-75
2022/12/29 01:42:46;;;;;;;2.80;0.73;;;11.50;99.90;;;;;;5095207;28;20189;-76
2022/12/29 01:45:13;;;;;;;2.60;0.70;;;11.50;99.90;;;;;;5077174;28;20163;-75
2022/12/29 01:47:51;;;;;;;3.67;1.10;;;11.40;99.90;;;;;;5095047;28;20681;-75
2022/12/29 01:50:23;;;;;;;2.63;0.73;;;11.40;99.90;;;;;;5094995;28;20250;-75
2022/12/29 01:52:55;;;;;;;1.67;0.67;;;11.40;99.90;;;;;;5095063;28;20249;-75
2022/12/29 01:55:21;;;;;;;1.60;0.87;;;11.50;99.90;;;;;;5095005;28;20682;-75
2022/12/29 01:57:50;;;;;;;1.90;0.80;;;11.50;99.90;;;;;;5094995;28;20186;-75
2022/12/29 02:00:16;;;;;;;1.33;0.70;;;11.50;99.90;;;;;;5076659;28;20206;-75
2022/12/29 02:02:47;;;;;;;2.17;0.67;;;11.50;99.90;;;;;;5094812;28;20167;-75
2022/12/29 02:05:51;;;;;;;2.13;0.60;;;11.40;99.90;;;;;;5094549;28;20159;-75
2022/12/29 02:08:20;;;;;;;1.50;0.40;;;11.50;99.90;;;;;;5094866;28;20166;-75
2022/12/29 02:10:47;;;;;;;1.53;0.30;;;11.50;99.90;;;;;;5094501;28;20162;-76
2022/12/29 02:13:17;;;;;;;2.23;0.90;;;11.40;99.90;;;;;;5076113;28;20177;-76
2022/12/29 02:16:21;;;;;;;1.03;0.50;;;11.30;99.90;;;;;;5076622;28;20295;-77
2022/12/29 02:19:27;;;;;;;2.27;0.53;;;11.10;99.90;;;;;;5055542;28;20669;-81
2022/12/29 02:22:15;;;;;;;2.43;0.60;;;11.10;99.90;;;;;;5094741;28;20185;-81
2022/12/29 02:24:52;;;;;;;3.23;0.60;;;10.90;99.90;;;;;;5094531;28;20596;-80
2022/12/29 02:27:45;;;;;;;6.00;0.70;;;10.90;99.90;;;;;;5094385;28;20241;-78
2022/12/29 02:30:17;;;;;;;3.20;0.60;;;10.70;99.90;;;;;;5055832;28;20179;-77
2022/12/29 02:32:56;;;;;;;3.67;0.70;;;10.60;99.90;;;;;;5076364;28;20174;-77
2022/12/29 02:35:41;;;;;;;4.27;0.60;;;10.60;99.90;;;;;;5076116;28;20174;-77
2022/12/29 02:38:10;;;;;;;1.63;0.57;;;10.50;99.90;;;;;;5076109;28;20188;-79
2022/12/29 02:40:43;;;;;;;1.80;0.50;;;10.50;99.90;;;;;;5076123;28;20569;-79
2022/12/29 02:43:28;;;;;;;1.33;0.60;;;10.50;99.90;;;;;;5094430;28;20700;-78
2022/12/29 02:46:10;;;;;;;1.40;0.40;;;10.40;99.90;;;;;;5075978;28;20174;-75
2022/12/29 02:49:05;;;;;;;1.77;0.43;;;10.40;99.90;;;;;;5075465;28;20166;-75
2022/12/29 02:51:48;;;;;;;1.03;0.30;;;10.40;99.90;;;;;;5089993;28;20197;-75
2022/12/29 02:57:02;;;;;;;2.83;0.33;;;10.40;99.90;;;;;;5094239;28;20174;-75
2022/12/29 02:59:28;;;;;;;1.60;0.30;;;10.40;99.90;;;;;;5075449;28;20659;-75
2022/12/29 03:02:20;;;;;;;2.93;0.50;;;10.40;99.90;;;;;;5093791;28;20161;-76
2022/12/29 03:04:46;;;;;;;3.83;0.30;;;10.40;99.90;;;;;;5075337;28;20254;-74
2022/12/29 03:07:28;;;;;;;1.73;0.83;;;10.40;99.90;;;;;;5075032;28;20418;-77
2022/12/29 03:10:09;;;;;;;2.40;0.57;;;10.30;99.90;;;;;;5093278;28;20167;-76
2022/12/29 03:16:21;;;;;;;8.23;0.87;;;10.10;99.90;;;;;;5093099;28;20256;-76
2022/12/29 03:19:02;;;;;;;4.80;1.20;;;10.00;99.90;;;;;;5057342;28;20639;-75
2022/12/29 03:24:26;;;;;;;4.20;0.90;;;10.00;99.90;;;;;;5093201;28;20189;-77
2022/12/29 03:26:56;;;;;;;4.80;0.70;;;10.00;99.90;;;;;;5092956;28;20162;-75
2022/12/29 03:29:21;;;;;;;3.10;0.80;;;10.10;99.90;;;;;;5092764;28;20198;-75
2022/12/29 03:31:49;;;;;;;8.17;1.03;;;10.10;99.90;;;;;;5092639;28;20259;-75
2022/12/29 03:34:18;;;;;;;1.07;0.50;;;10.10;99.90;;;;;;5074718;28;20603;-75
2022/12/29 03:36:59;;;;;;;3.20;0.60;;;10.20;99.90;;;;;;5074550;28;20178;-75
2022/12/29 03:39:26;;;;;;;1.57;0.43;;;10.20;99.90;;;;;;5092784;28;20198;-75
2022/12/29 03:41:58;;;;;;;3.43;0.70;;;10.20;99.90;;;;;;5074805;28;20285;-75
2022/12/29 03:44:39;;;;;;;1.90;0.50;;;10.30;99.90;;;;;;5092766;28;20555;-75
2022/12/29 03:47:06;;;;;;;4.00;1.33;;;10.40;99.90;;;;;;5074386;28;20197;-75
2022/12/29 03:49:32;;;;;;;2.07;0.60;;;10.40;99.90;;;;;;5074424;28;20178;-75
2022/12/29 03:51:58;;;;;;;3.97;0.70;;;10.50;99.90;;;;;;5074236;28;20514;-76
2022/12/29 03:54:24;;;;;;;5.03;0.87;;;10.50;99.90;;;;;;5074418;28;20279;-75
2022/12/29 03:56:49;;;;;;;3.30;0.73;;;10.50;99.90;;;;;;5074311;28;20181;-76
2022/12/29 03:59:15;;;;;;;6.63;1.00;;;10.40;99.90;;;;;;5074231;28;20288;-76
2022/12/29 04:01:41;;;;;;;3.07;0.60;;;10.40;99.90;;;;;;5073958;28;20210;-75
2022/12/29 04:04:06;;;;;;;4.97;0.80;;;10.50;99.90;;;;;;5074458;28;20170;-76
2022/12/29 04:06:32;;;;;;;4.03;0.60;;;10.60;99.90;;;;;;5074228;28;20647;-76
2022/12/29 04:08:57;;;;;;;4.00;0.73;;;10.50;99.90;;;;;;5092416;28;20571;-76
2022/12/29 04:11:23;;;;;;;5.67;0.87;;;10.50;99.90;;;;;;5092280;28;20167;-75
2022/12/29 04:13:49;;;;;;;3.40;0.90;;;10.40;99.90;;;;;;5074204;28;20538;-76
2022/12/29 04:16:15;;;;;;;4.27;0.80;;;10.50;99.90;;;;;;5092082;28;20163;-77
2022/12/29 04:18:40;;;;;;;4.50;0.70;;;10.50;99.90;;;;;;5074264;28;20154;-76
2022/12/29 04:21:06;;;;;;;5.17;1.07;;;10.40;99.90;;;;;;5073882;28;20193;-76
2022/12/29 04:23:35;;;;;;;3.07;0.57;;;10.50;99.90;;;;;;5074098;28;20182;-77
2022/12/29 04:26:02;;;;;;;3.20;0.70;;;10.50;99.90;;;;;;5092137;28;20174;-76
2022/12/29 04:28:27;;;;;;;3.03;0.60;;;10.40;99.90;;;;;;5074087;28;20176;-75
2022/12/29 04:30:53;;;;;;;3.57;0.60;;;10.30;99.90;;;;;;5073800;28;20256;-75
2022/12/29 04:33:19;;;;;;;3.50;0.50;;;10.40;99.90;;;;;;5092541;28;20540;-76
2022/12/29 04:35:45;;;;;;;5.10;0.87;;;10.40;99.90;;;;;;5078028;28;20177;-77
2022/12/29 04:38:11;;;;;;;2.67;0.83;;;10.40;99.90;;;;;;5077954;28;20193;-75
2022/12/29 04:40:39;;;;;;;6.13;0.80;;;10.30;99.90;;;;;;5077901;28;20198;-77
2022/12/29 04:43:06;;;;;;;3.20;0.67;;;10.30;99.90;;;;;;5078128;28;20659;-80
2022/12/29 04:45:32;;;;;;;3.97;1.13;;;10.40;99.90;;;;;;5077983;28;20581;-79
2022/12/29 04:47:59;;;;;;;3.67;0.70;;;10.40;99.90;;;;;;5096267;28;20253;-80
2022/12/29 04:50:24;;;;;;;2.57;0.77;;;10.50;99.90;;;;;;5077590;28;20203;-80
2022/12/29 04:52:50;;;;;;;3.17;0.77;;;10.40;99.90;;;;;;5096293;28;20170;-80
2022/12/29 04:55:16;;;;;;;6.07;1.00;;;10.40;99.90;;;;;;5096141;28;20162;-80
2022/12/29 04:57:43;;;;;;;2.13;0.90;;;10.30;99.90;;;;;;5096253;28;20639;-81
2022/12/29 05:00:10;;;;;;;3.73;0.90;;;10.30;99.90;;;;;;5095833;28;20201;-80
2022/12/29 05:02:37;;;;;;;3.80;0.90;;;10.50;99.90;;;;;;5095749;28;20171;-80
2022/12/29 05:05:04;;;;;;;3.33;0.67;;;10.40;99.90;;;;;;5078012;28;20167;-80
2022/12/29 05:07:29;;;;;;;4.37;0.80;;;10.40;99.90;;;;;;5078081;28;20536;-81
2022/12/29 05:09:55;;;;;;;3.97;0.83;;;10.50;99.90;;;;;;5077707;28;20193;-81
2022/12/29 05:12:21;;;;;;;2.03;0.80;;;10.50;99.90;;;;;;5095783;28;20166;-81
2022/12/29 05:14:46;;;;;;;6.07;0.87;;;10.60;99.90;;;;;;5094486;28;20180;-81
2022/12/29 05:17:12;;;;;;;4.03;0.60;;;10.70;99.90;;;;;;5095984;28;20628;-83
2022/12/29 05:19:38;;;;;;;3.20;1.13;;;10.70;99.90;;;;;;5077410;28;20198;-83
2022/12/29 05:22:04;;;;;;;5.00;1.10;;;10.60;99.90;;;;;;5096411;28;20564;-83
2022/12/29 05:24:29;;;;;;;3.90;0.87;;;10.70;99.90;;;;;;5095535;28;20185;-81
2022/12/29 05:26:55;;;;;;;5.03;0.70;;;10.70;99.90;;;;;;5077514;28;20586;-81
2022/12/29 05:29:20;;;;;;;6.00;1.30;;;10.80;99.90;;;;;;5095573;28;20154;-83
2022/12/29 05:31:46;;;;;;;6.97;1.23;;;10.80;99.90;;;;;;5095598;28;20208;-83
2022/12/29 05:34:13;;;;;;;3.77;0.90;;;11.00;99.90;;;;;;5095575;28;20261;-81
2022/12/29 05:36:39;;;;;;;6.77;0.73;;;10.80;99.90;;;;;;5096034;28;20215;-82
2022/12/29 05:39:07;;;;;;;3.03;0.87;;;10.90;99.90;;;;;;5095336;28;20170;-81
2022/12/29 05:41:33;;;;;;;6.07;0.90;;;10.90;99.90;;;;;;5077461;28;20261;-82
2022/12/29 05:43:58;;;;;;;6.33;0.83;;;10.90;99.90;;;;;;5076731;28;20262;-81
2022/12/29 05:46:24;;;;;;;4.93;1.10;;;10.90;99.90;;;;;;5095240;28;20636;-82
2022/12/29 05:48:50;;;;;;;6.73;1.40;;;10.80;99.90;;;;;;5078283;28;20253;-81
2022/12/29 05:51:15;;;;;;;7.00;1.10;;;10.80;99.90;;;;;;5095992;28;20586;-81
2022/12/29 05:53:42;;;;;;;4.17;0.83;;;10.90;99.90;;;;;;5096121;28;20178;-82
2022/12/29 05:56:07;;;;;;;5.90;1.00;;;10.90;99.90;;;;;;5095852;28;20679;-82
2022/12/29 05:58:33;;;;;;;5.60;0.90;;;10.90;99.90;;;;;;5095220;28;20205;-82
2022/12/29 06:01:01;;;;;;;5.70;1.10;;;11.00;99.90;;;;;;5094741;28;20281;-80
2022/12/29 06:03:27;;;;;;;8.47;1.03;;;10.90;99.90;;;;;;5077360;28;20208;-83
2022/12/29 06:05:53;;;;;;;6.30;1.40;;;10.90;99.90;;;;;;5095323;28;20250;-80
2022/12/29 06:08:18;;;;;;;6.70;1.33;;;10.80;99.90;;;;;;5094927;28;20574;-79
2022/12/29 06:10:44;;;;;;;4.70;0.87;;;10.80;99.90;;;;;;5076727;28;20253;-80
2022/12/29 06:13:09;;;;;;;4.27;0.90;;;10.70;99.90;;;;;;5093422;28;20167;-80
2022/12/29 06:15:36;;;;;;;7.90;1.37;;;10.70;99.90;;;;;;5076901;28;20174;-80
2022/12/29 06:18:01;;;;;;;7.90;0.97;;;10.70;99.90;;;;;;5076874;28;20174;-79
2022/12/29 06:20:27;;;;;;;4.90;1.30;;;10.60;99.90;;;;;;5094930;28;20198;-79
2022/12/29 06:22:53;;;;;;;6.43;1.10;;;10.70;99.90;;;;;;5076432;28;20239;-79
2022/12/29 06:25:19;;;;;;;6.63;1.00;;;10.80;99.90;;;;;;5094505;28;20261;-79
2022/12/29 06:27:45;;;;;;;5.63;1.00;;;10.70;99.90;;;;;;5076211;28;20163;-79
2022/12/29 06:30:11;;;;;;;5.50;1.10;;;10.80;99.90;;;;;;5076087;28;20190;-78
2022/12/29 06:32:37;;;;;;;7.07;1.53;;;10.60;99.90;;;;;;5076061;28;20598;-79
2022/12/29 06:35:04;;;;;;;5.77;0.93;;;10.70;99.90;;;;;;5094160;28;20194;-79
2022/12/29 06:37:30;;;;;;;4.93;1.20;;;10.70;99.90;;;;;;5094451;28;20653;-79
2022/12/29 06:39:55;;;;;;;6.37;1.07;;;10.70;99.90;;;;;;5075920;28;20195;-79
2022/12/29 06:42:21;;;;;;;7.37;1.10;;;10.70;99.90;;;;;;5094051;28;20253;-79
2022/12/29 06:44:47;;;;;;;6.33;1.33;;;10.80;99.90;;;;;;5075754;28;20537;-79
2022/12/29 06:47:13;;;;;;;4.27;1.27;;;10.80;99.90;;;;;;5075890;28;20259;-76
2022/12/29 06:49:39;;;;;;;4.77;1.20;;;10.80;99.90;;;;;;5075701;28;20182;-79
2022/12/29 06:52:04;;;;;;;11.20;1.27;;;10.80;99.90;;;;;;5075930;28;20458;-78
2022/12/29 06:54:31;;;;;;;10.57;1.50;;;10.80;99.90;;;;;;5076716;28;20634;-77
2022/12/29 06:56:56;;;;;;;5.83;1.37;;;10.80;99.90;;;;;;5075762;28;20162;-76
2022/12/29 06:59:22;;;;;;;8.67;1.87;;;10.90;99.90;;;;;;5075707;28;20238;-75
2022/12/29 07:01:48;;;;;;;7.40;1.20;;;10.90;99.90;;;;;;5093528;28;20166;-78
2022/12/29 07:04:13;;;;;;;7.93;1.47;;;10.90;99.90;;;;;;5093729;28;20208;-77
2022/12/29 07:06:40;;;;;;;6.47;1.33;;;11.00;99.90;;;;;;5075641;28;20163;-77
2022/12/29 07:09:06;;;;;;;6.17;1.30;;;11.00;99.90;;;;;;5093656;28;20707;-77
2022/12/29 07:11:34;;;;;;;8.50;1.20;;;11.00;99.90;;;;;;5093567;28;20704;-77
2022/12/29 07:14:02;;;;;;;6.70;1.13;;;10.90;99.90;;;;;;5092068;28;20258;-77
2022/12/29 07:16:29;;;;;;;5.97;1.40;;;10.80;99.90;;;;;;5093834;28;20162;-77
2022/12/29 07:18:54;;;;;;;4.87;1.07;;;10.90;99.90;;;;;;5075065;28;20269;-77
2022/12/29 07:21:20;;;;;;;7.00;1.50;;;10.90;99.90;;;;;;5091891;28;20734;-77
2022/12/29 07:23:45;;;;;;;8.17;1.27;;;10.90;99.90;;;;;;5092867;28;20213;-77
2022/12/29 07:26:17;;;;;;;8.93;1.30;;;10.90;99.90;;;;;;5074860;28;20162;-77
2022/12/29 07:28:44;;;;;;;4.50;0.97;;;11.00;99.90;;;;;;5074978;28;20253;-77
2022/12/29 07:31:16;;;;;;;7.67;1.30;;;11.00;99.90;;;;;;5074836;28;20666;-76
2022/12/29 07:33:41;;;;;;;5.77;1.93;;;10.90;99.90;;;;;;5093143;28;20170;-77
2022/12/29 07:36:08;;;;;;;5.30;1.47;;;11.00;99.90;;;;;;5093066;28;20170;-77
2022/12/29 07:38:35;;;;;;;7.60;1.30;;;11.00;99.90;;;;;;5093006;28;20189;-77
2022/12/29 07:41:01;;;;;;;5.23;1.13;;;11.10;99.90;;;;;;5092855;28;20190;-77
2022/12/29 07:43:27;;;;;;;7.83;1.97;;;11.10;99.90;;;;;;5093041;28;20230;-76
2022/12/29 07:45:54;;;;;;;7.03;1.50;;;11.10;99.90;;;;;;5074523;28;20190;-76
2022/12/29 07:48:23;;;;;;;8.43;1.73;;;11.10;99.90;;;;;;5092676;28;20242;-76
2022/12/29 07:50:48;;;;;;;7.33;1.50;;;11.00;99.90;;;;;;5092565;28;20170;-76
2022/12/29 07:53:14;;;;;;;7.27;1.30;;;11.10;99.90;;;;;;5092348;28;20234;-76
2022/12/29 07:55:40;;;;;;;12.13;2.53;;;11.10;99.90;;;;;;5074348;28;20170;-76
2022/12/29 07:58:06;;;;;;;10.10;1.63;;;11.10;99.90;;;;;;5092637;28;20753;-76
2022/12/29 08:00:31;;;;;;;5.43;1.63;;;11.00;99.90;;;;;;5092390;28;20312;-76
2022/12/29 08:02:57;;;;;;;5.80;1.30;;;11.00;99.90;;;;;;5092529;28;20253;-76
2022/12/29 08:05:23;;;;;;;4.90;1.33;;;11.10;99.90;;;;;;5091106;28;20582;-76
2022/12/29 08:07:48;;;;;;;8.97;1.90;;;11.00;99.90;;;;;;5074113;28;20257;-76
2022/12/29 08:10:15;;;;;;;6.07;1.10;;;11.00;99.90;;;;;;5092247;28;20166;-76
2022/12/29 08:12:41;;;;;;;9.40;1.40;;;11.10;99.90;;;;;;5092541;28;20254;-75
2022/12/29 08:15:09;;;;;;;7.97;2.00;;;11.00;99.90;;;;;;5092429;28;20173;-75
2022/12/29 08:17:34;;;;;;;9.00;1.67;;;11.00;99.90;;;;;;5092367;28;20167;-75
2022/12/29 08:20:00;;;;;;;8.50;1.50;;;11.00;99.90;;;;;;5092298;28;20243;-75
2022/12/29 08:22:26;;;;;;;10.10;1.53;;;11.10;99.90;;;;;;5073865;28;20170;-77
2022/12/29 08:24:51;;;;;;;6.63;1.20;;;11.10;99.90;;;;;;5091260;28;20174;-76
2022/12/29 08:27:18;;;;;;;6.73;1.53;;;11.20;99.90;;;;;;5074159;28;20162;-76
2022/12/29 08:29:44;;;;;;;9.40;1.57;;;11.10;99.90;;;;;;5092220;28;20170;-76
2022/12/29 08:32:10;;;;;;;10.77;1.67;;;11.20;99.90;;;;;;5090805;28;20181;-76
2022/12/29 08:34:36;;;;;;;9.23;1.50;;;11.20;99.90;;;;;;5092359;28;20167;-75
2022/12/29 08:37:02;;;;;;;6.63;1.23;;;11.00;99.90;;;;;;5092154;28;20631;-74
2022/12/29 08:39:28;;;;;;;6.13;1.40;;;11.00;99.90;;;;;;5073991;28;20251;-75
2022/12/29 08:41:54;;;;;;;6.03;1.30;;;11.10;99.90;;;;;;5073893;28;20166;-75
2022/12/29 08:44:19;;;;;;;7.50;1.87;;;11.00;99.90;;;;;;5092126;28;20173;-75
2022/12/29 08:46:45;;;;;;;5.07;1.30;;;11.00;99.90;;;;;;5074011;28;20174;-75
2022/12/29 08:49:10;;;;;;;7.73;1.70;;;11.00;99.90;;;;;;5091938;28;20181;-75
2022/12/29 08:51:36;;;;;;;13.33;1.80;;;11.00;99.90;;;;;;5091807;28;20604;-75
2022/12/29 08:54:02;;;;;;;8.80;2.00;;;11.10;99.90;;;;;;5073995;28;20170;-75
2022/12/29 08:56:28;;;;;;;8.23;2.03;;;11.00;99.90;;;;;;5073849;28;20167;-75
2022/12/29 08:58:53;;;;;;;6.23;1.37;;;11.10;99.90;;;;;;5091975;28;20167;-75
2022/12/29 09:01:19;;;;;;;6.10;1.57;;;11.10;99.90;;;;;;5091754;28;20198;-75
2022/12/29 09:03:45;;;;;;;5.40;1.27;;;11.20;99.90;;;;;;5073708;28;20278;-75
2022/12/29 09:06:11;;;;;;;8.33;1.50;;;11.10;99.90;;;;;;5091812;28;20220;-75
2022/12/29 09:08:37;;;;;;;8.50;1.50;;;11.10;99.90;;;;;;5091676;28;20170;-75
2022/12/29 09:11:24;;;;;;;9.37;1.63;;;11.00;99.90;;;;;;5073598;28;20624;-74
2022/12/29 09:13:50;;;;;;;7.00;1.40;;;11.00;99.90;;;;;;5073662;28;20182;-76
2022/12/29 09:16:16;;;;;;;7.97;2.07;;;10.90;99.90;;;;;;5073505;28;20646;-76
2022/12/29 09:18:42;;;;;;;8.27;1.63;;;10.80;99.90;;;;;;5091732;28;20167;-76
2022/12/29 09:21:10;;;;;;;9.67;2.00;;;10.80;99.90;;;;;;5076399;28;20187;-76
2022/12/29 09:23:37;;;;;;;9.87;1.70;;;10.70;99.90;;;;;;5077068;28;20178;-76
2022/12/29 09:26:04;;;;;;;5.00;1.20;;;10.70;99.90;;;;;;5094133;28;20174;-76
2022/12/29 09:28:30;;;;;;;7.80;1.50;;;10.70;99.90;;;;;;5095192;28;20190;-76
2022/12/29 09:30:57;;;;;;;8.90;1.93;;;10.70;99.90;;;;;;5077026;28;20600;-76
2022/12/29 09:33:23;;;;;;;8.90;1.60;;;10.80;99.90;;;;;;5095064;28;20173;-76
2022/12/29 09:35:54;;;;;;;9.03;1.43;;;10.70;99.90;;;;;;5094975;28;20162;-76
2022/12/29 09:38:20;;;;;;;9.73;1.40;;;10.50;99.90;;;;;;5076752;28;20224;-76
2022/12/29 09:40:50;;;;;;;8.13;1.77;;;10.40;99.90;;;;;;5076836;28;20667;-76
2022/12/29 09:43:32;;;;;;;7.83;1.60;;;10.30;99.90;;;;;;5077097;28;20169;-76
2022/12/29 09:46:04;;;;;;;8.47;1.93;;;10.30;99.90;;;;;;5076795;28;20174;-76
2022/12/29 09:48:34;;;;;;;7.80;1.90;;;10.30;99.90;;;;;;5094871;28;20244;-76
2022/12/29 09:51:07;;;;;;;10.83;2.27;;;10.20;99.90;;;;;;5076462;28;20587;-76
2022/12/29 09:53:39;;;;;;;11.90;2.10;;;10.30;99.90;;;;;;5094805;28;20179;-77
2022/12/29 09:56:11;;;;;;;13.43;2.10;;;10.40;99.90;;;;;;5094832;28;20533;-76
2022/12/29 09:58:49;;;;;;;11.87;3.00;;;10.40;99.90;;;;;;5076595;28;20166;-75
2022/12/29 10:01:21;;;;;;;7.20;1.37;;;10.40;99.90;;;;;;5094745;28;20194;-75
2022/12/29 10:03:49;;;;;;;8.57;1.80;;;10.50;99.90;;;;;;5076164;28;20204;-75
2022/12/29 10:06:25;;;;;;;10.27;2.30;;;10.60;99.90;;;;;;5094901;28;20237;-76
2022/12/29 10:09:17;;;;;;;11.23;2.20;;;10.70;99.90;;;;;;5094561;28;20170;-75
2022/12/29 10:12:03;;;;;;;7.70;1.37;;;10.70;99.90;;;;;;5094456;28;20261;-76
2022/12/29 10:14:59;;;;;;;8.37;2.17;;;10.70;99.90;;;;;;5076085;28;20166;-76
2022/12/29 10:17:27;;;;;;;10.30;1.30;;;10.70;99.90;;;;;;5094529;28;20521;-75
2022/12/29 10:20:18;;;;;;;7.70;1.97;;;10.80;99.90;;;;;;5075753;28;20675;-75
2022/12/29 10:23:06;;;;;;;12.90;2.20;;;10.60;99.90;;;;;;5076201;28;20178;-75
2022/12/29 10:25:38;;;;;;;11.10;2.10;;;10.80;99.90;;;;;;5094227;28;20284;-75
2022/12/29 10:28:31;;;;;;;6.77;1.63;;;10.90;99.90;;;;;;5076332;28;20627;-75
2022/12/29 10:30:58;;;;;;;6.63;1.83;;;11.00;99.90;;;;;;5094085;28;20182;-75
2022/12/29 10:33:34;;;;;;;10.23;2.37;;;11.10;99.90;;;;;;5093662;28;20659;-75
2022/12/29 10:36:11;;;;;;;14.10;2.77;;;11.00;99.90;;;;;;5075472;28;20704;-75
2022/12/29 10:38:46;;;;;;;14.70;2.80;;;11.00;99.90;;;;;;5094156;28;20171;-75
2022/12/29 10:41:18;;;;;;;11.03;2.63;;;11.00;99.90;;;;;;5093931;28;20193;-75
2022/12/29 10:43:52;;;;;;;10.53;1.90;;;11.10;99.90;;;;;;5093726;28;20215;-74
2022/12/29 10:46:22;;;;;;;10.77;1.70;;;11.20;99.90;;;;;;5093744;28;20146;-74
2022/12/29 10:48:48;;;;;;;10.63;2.17;;;11.10;99.90;;;;;;5093296;28;20178;-74
2022/12/29 10:51:25;;;;;;;9.37;1.90;;;11.20;99.90;;;;;;5075476;28;20651;-75
2022/12/29 10:54:30;;;;;;;6.17;2.00;;;11.20;99.90;;;;;;5093585;28;20163;-74
2022/12/29 10:57:07;;;;;;;9.43;2.00;;;11.30;99.90;;;;;;5073259;28;20635;-74
2022/12/29 10:59:36;;;;;;;12.40;2.40;;;11.40;99.90;;;;;;5093369;28;20194;-74
2022/12/29 11:02:04;;;;;;;7.00;1.93;;;11.40;99.90;;;;;;5093367;28;20170;-76
2022/12/29 11:04:42;;;;;;;8.23;1.50;;;11.60;99.90;;;;;;5093336;28;20181;-75
2022/12/29 11:07:09;;;;;;;9.53;2.27;;;11.50;99.90;;;;;;5093386;28;20170;-75
2022/12/29 11:09:38;;;;;;;10.37;1.73;;;11.60;99.90;;;;;;5093263;28;20632;-75
2022/12/29 11:12:27;;;;;;;5.83;1.60;;;11.80;99.90;;;;;;5093334;28;20177;-75
2022/12/29 11:15:10;;;;;;;10.80;1.93;;;11.80;99.90;;;;;;5093184;28;20312;-75
2022/12/29 11:17:48;;;;;;;7.83;1.80;;;11.60;99.90;;;;;;5093168;28;20532;-75
2022/12/29 11:20:33;;;;;;;7.13;1.50;;;11.40;99.90;;;;;;5093023;28;20193;-75
2022/12/29 11:22:59;;;;;;;11.03;2.23;;;11.60;99.90;;;;;;5093145;28;20277;-75
2022/12/29 11:25:26;;;;;;;13.77;2.23;;;11.90;99.90;;;;;;5074499;28;20186;-75
2022/12/29 11:28:03;;;;;;;10.40;2.00;;;12.00;99.90;;;;;;5093067;28;20246;-76
2022/12/29 11:30:31;;;;;;;12.07;2.10;;;12.00;99.90;;;;;;5092766;28;20199;-75
2022/12/29 11:32:58;;;;;;;15.77;2.63;;;12.10;99.90;;;;;;5092987;28;20158;-74
2022/12/29 11:35:31;;;;;;;10.17;2.60;;;12.00;99.90;;;;;;5074516;28;20168;-74
2022/12/29 11:37:59;;;;;;;12.07;2.10;;;11.90;99.90;;;;;;5092970;28;20167;-75
2022/12/29 11:40:25;;;;;;;8.70;1.83;;;11.60;99.90;;;;;;5092548;28;20194;-74
2022/12/29 11:42:54;;;;;;;5.47;1.77;;;11.30;99.90;;;;;;5092316;28;20627;-74
2022/12/29 11:45:28;;;;;;;9.53;2.07;;;11.10;99.90;;;;;;5092516;28;20166;-75
2022/12/29 11:48:12;;;;;;;8.97;1.63;;;11.10;99.90;;;;;;5074780;28;20170;-77
2022/12/29 11:50:41;;;;;;;10.77;2.03;;;11.10;99.90;;;;;;5092697;28;20178;-75
2022/12/29 11:53:30;;;;;;;9.53;2.07;;;11.10;99.90;;;;;;5074530;28;20178;-76
2022/12/29 11:55:59;;;;;;;8.60;2.07;;;11.00;99.90;;;;;;5092826;28;20534;-76
2022/12/29 11:58:32;;;;;;;10.20;2.47;;;11.00;99.90;;;;;;5074776;28;20260;-75
2022/12/29 12:01:33;;;;;;;11.60;2.73;;;11.00;99.90;;;;;;5074185;28;20236;-75
2022/12/29 12:04:01;;;;;;;8.67;1.93;;;11.10;99.90;;;;;;5070938;28;20280;-75
2022/12/29 12:06:28;;;;;;;10.77;2.30;;;11.00;99.90;;;;;;5092337;28;20162;-75
2022/12/29 12:08:59;;;;;;;10.93;2.53;;;10.90;99.90;;;;;;5074502;28;20215;-75
2022/12/29 12:11:36;;;;;;;13.13;2.03;;;11.00;99.90;;;;;;5092425;28;20175;-75
2022/12/29 12:14:23;;;;;;;8.47;2.80;;;11.00;99.90;;;;;;5074125;28;20232;-75
2022/12/29 12:17:18;;;;;;;10.27;2.57;;;11.10;99.90;;;;;;5092526;28;20615;-75
2022/12/29 12:19:56;;;;;;;11.33;2.63;;;11.20;99.90;;;;;;5091270;28;20211;-74
2022/12/29 12:22:33;;;;;;;7.83;2.13;;;11.20;99.90;;;;;;5092251;28;20249;-75
2022/12/29 12:25:10;;;;;;;8.90;2.10;;;11.10;99.90;;;;;;5092377;28;20178;-75
2022/12/29 12:27:43;;;;;;;11.13;1.93;;;11.20;99.90;;;;;;5074063;28;20174;-75
2022/12/29 12:30:24;;;;;;;10.17;2.20;;;10.90;99.90;;;;;;5073871;28;20715;-75
2022/12/29 12:33:26;;;;;;;8.47;2.10;;;10.90;99.90;;;;;;5091950;28;20249;-75
2022/12/29 12:36:40;;;;;;;12.07;2.47;;;10.80;99.90;;;;;;5074174;28;20178;-76
2022/12/29 12:39:26;;;;;;;8.50;2.03;;;10.90;99.90;;;;;;5073990;28;20546;-75
2022/12/29 12:42:15;;;;;;;7.13;1.63;;;10.90;99.90;;;;;;5073991;28;20170;-76
2022/12/29 12:45:02;;;;;;;11.43;2.20;;;11.00;99.90;;;;;;5073843;28;20185;-75
2022/12/29 12:47:58;;;;;;;12.63;2.67;;;11.10;99.90;;;;;;5073752;28;20204;-74
2022/12/29 12:50:41;;;;;;;9.90;2.60;;;11.10;99.90;;;;;;5073833;28;20214;-74
2022/12/29 12:53:17;;;;;;;15.17;2.07;;;11.10;99.90;;;;;;5091950;28;20185;-75
2022/12/29 12:56:08;;;;;;;9.17;2.13;;;11.00;99.90;;;;;;5076501;28;20177;-75
2022/12/29 12:58:49;;;;;;;9.83;2.20;;;11.10;99.90;;;;;;5095902;28;20174;-75
2022/12/29 13:01:17;;;;;;;7.90;1.83;;;11.10;99.90;;;;;;5095872;28;20196;-74
2022/12/29 13:04:04;;;;;;;13.97;2.80;;;11.00;99.90;;;;;;5077492;28;20176;-74
2022/12/29 13:07:08;;;;;;;8.20;1.87;;;11.10;99.90;;;;;;5095786;28;20616;-76
2022/12/29 13:09:52;;;;;;;10.13;2.10;;;11.20;99.90;;;;;;5077649;28;20174;-74
2022/12/29 13:12:58;;;;;;;12.47;2.20;;;11.20;99.90;;;;;;5077026;28;20174;-76
2022/12/29 13:15:36;;;;;;;10.13;1.53;;;11.20;99.90;;;;;;5095642;28;20177;-75
2022/12/29 13:18:11;;;;;;;5.93;1.90;;;11.20;99.90;;;;;;5077375;28;20170;-75
2022/12/29 13:20:37;;;;;;;6.73;1.60;;;11.20;99.90;;;;;;5095216;28;20258;-75
2022/12/29 13:23:17;;;;;;;9.33;1.53;;;11.20;99.90;;;;;;5095384;28;20282;-76
2022/12/29 13:26:00;;;;;;;8.00;2.13;;;11.20;99.90;;;;;;5095391;28;20189;-74
2022/12/29 13:28:31;;;;;;;9.63;1.83;;;11.20;99.90;;;;;;5095308;28;20174;-75
2022/12/29 13:31:06;;;;;;;5.17;1.80;;;11.40;99.90;;;;;;5095430;28;20635;-75
2022/12/29 13:33:48;;;;;;;5.70;2.00;;;11.50;99.90;;;;;;5076700;28;20694;-75
2022/12/29 13:36:32;;;;;;;11.53;1.70;;;11.30;99.90;;;;;;5095162;28;20166;-75
2022/12/29 13:39:16;;;;;;;9.37;1.43;;;11.40;99.90;;;;;;5095060;28;20166;-75
2022/12/29 13:41:54;;;;;;;9.07;1.80;;;11.30;99.90;;;;;;5076393;28;20289;-75
2022/12/29 13:44:27;;;;;;;12.03;1.90;;;11.10;99.90;;;;;;5094974;28;20166;-74